Nome, AK

5:20 PM AKST on February 11, 2016 (GMT -0900)
Nome | | Change Station
CLOSE
Current Station
Airport
Location: Nome,
Elevation: 36 ft
Nearby Weather Stations

Elev 36 ft 64.51 °N, 165.45 °W | Updated 27 minutes ago

Clear
Clear
7 °F
Feels Like -2 °F
N
5
Wind Variable Wind from NW

Today
High -- | Low -- °F
--% Chance of Precip.
Yesterday
High -- | Low -- °F
Precip. -- in
Pressure 29.70 in
Visibility 10.0 miles
Clouds Clear
Windchill -2 °F
Dew Point 1 °F
Humidity 77%
Rainfall 0.00 in
Snow Depth Not available.
10:12 AM 6:19 PM
Waxing Crescent, 16% visible
METAR PAOM 120153Z AUTO 32004KT 10SM CLR M14/M17 A2970 RMK SLP058 T11391172 TSNO VIA AUTODIAL
Pressure 29.70 in
Visibility 10.0 miles
Clouds Clear
Windchill -2 °F
Dew Point 1 °F
Humidity 77%
Rainfall 0.00 in
Snow Depth Not available.
10:12 AM 6:19 PM
Waxing Crescent, 16% visible
METAR PAOM 120153Z AUTO 32004KT 10SM CLR M14/M17 A2970 RMK SLP058 T11391172 TSNO VIA AUTODIAL

10-Day Weather Forecast

Almanac

Astronomy

Feb. 11, 2016 Rise Set
Actual Time
Civil Twilight
Nautical Twilight
Astronomical Twilight
Moon
Length of Visible Light
Length of Day
Tomorrow will be .
, % of the Moon is Illuminated

Today's Extremes

State Highs State Lows

Community

WunderPhotos

Upload Photos

1,892,225 photos uploaded!

WunderBlog® & News

Nearby

Air Quality

  Air Quality AQ Index Pollutant
Not available.

Snow Depth

Station Depth Elevation

Earthquake Activity

City Distance Mag. Time & Date
Minimum magnitude displayed is 2.5.

Coastal Water Temperatures

Place Temperature

Stations

Nearby Weather Stations

Station Location Temp. Windchill Dew Point Humidity Wind Precip. Elev Updated Type
                   

Watches & Warnings

There are currently no watches in effect.